createdAt,value
2022-12-25T00:02:22.934Z,108.40
2022-12-25T00:04:50.962Z,89.30
2022-12-25T00:07:19.222Z,88.30
2022-12-25T00:09:47.115Z,76.90
2022-12-25T00:12:15.118Z,80.60
2022-12-25T00:14:43.320Z,88.20
2022-12-25T00:17:11.200Z,92.30
2022-12-25T00:19:39.191Z,100.30
2022-12-25T00:22:07.398Z,100.70
2022-12-25T00:24:35.726Z,104.80
2022-12-25T00:27:03.950Z,96.80
2022-12-25T00:29:31.981Z,103.70
2022-12-25T00:32:00.263Z,92.20
2022-12-25T00:34:28.360Z,99.10
2022-12-25T00:36:56.437Z,107.10
2022-12-25T00:39:24.684Z,112.80
2022-12-25T00:42:11.852Z,104.90
2022-12-25T00:44:39.894Z,101.60
2022-12-25T00:47:08.048Z,100.80
2022-12-25T00:49:36.028Z,100.20
2022-12-25T00:52:04.275Z,102.70
2022-12-25T00:54:32.378Z,82.50
2022-12-25T00:57:00.724Z,80.40
2022-12-25T00:59:32.609Z,78.60
2022-12-25T01:02:21.423Z,90.80
2022-12-25T01:04:51.497Z,91.40
2022-12-25T01:07:20.107Z,93.60
2022-12-25T01:10:07.541Z,95.00
2022-12-25T01:12:38.434Z,85.10
2022-12-25T01:15:08.437Z,91.60
2022-12-25T01:17:36.531Z,82.00
2022-12-25T01:20:05.422Z,79.60
2022-12-25T01:22:33.704Z,76.60
2022-12-25T01:25:01.692Z,88.60
2022-12-25T01:27:29.627Z,75.90
2022-12-25T01:29:57.561Z,70.50
2022-12-25T01:32:25.593Z,81.00
2022-12-25T01:34:56.047Z,81.80
2022-12-25T01:37:25.279Z,73.60
2022-12-25T01:39:53.355Z,78.00
2022-12-25T01:42:23.887Z,76.90
2022-12-25T01:44:51.755Z,75.30
2022-12-25T01:47:19.728Z,78.70
2022-12-25T01:49:50.915Z,73.00
2022-12-25T01:52:24.732Z,60.40
2022-12-25T01:54:57.742Z,60.90
2022-12-25T01:57:30.741Z,79.10
2022-12-25T02:00:00.276Z,74.20
2022-12-25T02:02:29.681Z,79.70
2022-12-25T02:05:04.356Z,85.60
2022-12-25T02:07:35.154Z,83.40
2022-12-25T02:10:04.340Z,76.40
2022-12-25T02:12:35.710Z,81.70
2022-12-25T02:15:10.907Z,77.30
2022-12-25T02:17:44.924Z,66.40
2022-12-25T02:20:47.163Z,73.50
2022-12-25T02:23:34.869Z,66.20
2022-12-25T02:26:03.609Z,68.00
2022-12-25T02:28:45.443Z,67.00
2022-12-25T02:31:19.093Z,69.10
2022-12-25T02:34:05.040Z,58.70
2022-12-25T02:36:57.563Z,62.60
2022-12-25T02:39:58.506Z,54.60
2022-12-25T02:46:07.154Z,39.10
2022-12-25T02:49:00.435Z,38.50
2022-12-25T02:51:51.753Z,35.40
2022-12-25T02:54:45.242Z,41.30
2022-12-25T02:57:35.586Z,37.70
2022-12-25T03:00:23.707Z,37.20
2022-12-25T03:03:11.400Z,41.00
2022-12-25T03:06:01.014Z,38.90
2022-12-25T03:08:42.989Z,33.70
2022-12-25T03:11:31.160Z,32.50
2022-12-25T03:14:22.182Z,32.50
2022-12-25T03:16:55.641Z,35.80
2022-12-25T03:19:47.535Z,34.30
2022-12-25T03:22:44.189Z,34.30
2022-12-25T03:25:31.979Z,40.90
2022-12-25T03:28:00.648Z,35.10
2022-12-25T03:31:12.362Z,33.20
2022-12-25T03:34:36.832Z,31.40
2022-12-25T03:37:13.679Z,34.60
2022-12-25T03:39:59.077Z,35.20
2022-12-25T03:42:49.445Z,30.40
2022-12-25T03:46:04.963Z,35.00
2022-12-25T03:48:55.147Z,32.50
2022-12-25T03:51:48.981Z,29.20
2022-12-25T03:54:42.501Z,33.60
2022-12-25T03:57:29.954Z,35.20
2022-12-25T04:00:16.113Z,31.30
2022-12-25T04:03:02.481Z,31.60
2022-12-25T04:05:49.053Z,31.20
2022-12-25T04:08:35.706Z,32.20
2022-12-25T04:11:22.257Z,32.30
2022-12-25T04:14:09.113Z,31.40
2022-12-25T04:16:55.742Z,31.40
2022-12-25T04:19:42.160Z,31.50
2022-12-25T04:22:28.416Z,28.00
2022-12-25T04:25:15.363Z,26.60
2022-12-25T04:28:01.683Z,31.90
2022-12-25T04:30:48.465Z,32.80
2022-12-25T04:33:35.077Z,26.40
2022-12-25T04:36:12.635Z,32.40
2022-12-25T04:38:41.978Z,24.90
2022-12-25T04:41:11.754Z,25.70
2022-12-25T04:43:40.050Z,31.20
2022-12-25T04:46:08.268Z,31.20
2022-12-25T04:48:37.070Z,29.80
2022-12-25T04:51:13.857Z,28.40
2022-12-25T04:53:42.951Z,28.60
2022-12-25T04:56:11.555Z,33.10
2022-12-25T04:58:39.902Z,27.70
2022-12-25T05:01:08.952Z,32.10
2022-12-25T05:03:37.744Z,28.00
2022-12-25T05:06:06.686Z,27.00
2022-12-25T05:08:35.466Z,29.60
2022-12-25T05:11:12.040Z,29.80
2022-12-25T05:13:40.272Z,34.80
2022-12-25T05:16:12.276Z,29.80
2022-12-25T05:18:40.601Z,35.90
2022-12-25T05:21:11.387Z,35.30
2022-12-25T05:26:08.037Z,27.20
2022-12-25T05:28:36.084Z,29.70
2022-12-25T05:31:04.117Z,32.40
2022-12-25T05:33:32.127Z,31.60
2022-12-25T05:36:04.910Z,27.70
2022-12-25T05:38:33.101Z,26.00
2022-12-25T05:41:01.150Z,27.50
2022-12-25T05:43:29.534Z,25.20
2022-12-25T05:45:57.492Z,24.00
2022-12-25T05:48:25.386Z,23.50
2022-12-25T05:50:53.616Z,25.60
2022-12-25T05:53:21.589Z,18.40
2022-12-25T05:55:49.735Z,21.10
2022-12-25T05:58:17.624Z,19.40
2022-12-25T06:00:48.512Z,13.70
2022-12-25T06:03:16.660Z,20.90
2022-12-25T06:05:44.621Z,26.70
2022-12-25T06:08:12.607Z,19.70
2022-12-25T06:10:40.857Z,20.20
2022-12-25T06:13:08.858Z,20.90
2022-12-25T06:15:41.729Z,25.60
2022-12-25T06:18:10.296Z,23.90
2022-12-25T06:20:41.501Z,27.70
2022-12-25T06:23:09.822Z,21.20
2022-12-25T06:25:41.064Z,17.10
2022-12-25T06:28:09.304Z,16.00
2022-12-25T06:30:37.230Z,20.80
2022-12-25T06:33:05.543Z,15.40
2022-12-25T06:35:33.799Z,20.20
2022-12-25T06:38:01.617Z,15.60
2022-12-25T06:40:29.718Z,14.40
2022-12-25T06:42:57.921Z,18.40
2022-12-25T06:45:26.362Z,19.40
2022-12-25T06:47:54.337Z,16.90
2022-12-25T06:50:22.269Z,15.90
2022-12-25T06:52:50.199Z,19.20
2022-12-25T06:55:18.326Z,16.80
2022-12-25T06:57:46.323Z,16.00
2022-12-25T07:00:14.671Z,13.20
2022-12-25T07:02:47.577Z,13.30
2022-12-25T07:05:15.951Z,16.40
2022-12-25T07:07:43.889Z,20.10
2022-12-25T07:10:12.385Z,19.90
2022-12-25T07:12:40.345Z,23.40
2022-12-25T07:15:09.217Z,29.40
2022-12-25T07:17:37.406Z,24.90
2022-12-25T07:20:07.070Z,20.80
2022-12-25T07:22:35.322Z,23.40
2022-12-25T07:25:03.214Z,25.90
2022-12-25T07:27:31.171Z,23.90
2022-12-25T07:29:59.160Z,21.80
2022-12-25T07:32:30.867Z,20.80
2022-12-25T07:34:59.224Z,23.50
2022-12-25T07:37:27.276Z,27.90
2022-12-25T07:39:55.392Z,23.40
2022-12-25T07:42:25.484Z,19.00
2022-12-25T07:44:55.966Z,19.30
2022-12-25T07:47:24.161Z,17.40
2022-12-25T07:49:52.328Z,14.20
2022-12-25T07:52:20.651Z,17.70
2022-12-25T07:54:48.813Z,15.90
2022-12-25T07:57:18.113Z,18.30
2022-12-25T07:59:50.549Z,21.40
2022-12-25T08:02:19.175Z,19.80
2022-12-25T08:04:47.586Z,15.80
2022-12-25T08:07:15.698Z,19.90
2022-12-25T08:09:43.663Z,16.70
2022-12-25T08:12:11.714Z,14.30
2022-12-25T08:14:40.065Z,18.40
2022-12-25T08:17:08.334Z,17.50
2022-12-25T08:19:36.621Z,15.80
2022-12-25T08:22:04.967Z,16.80
2022-12-25T08:24:33.223Z,17.40
2022-12-25T08:27:01.344Z,17.90
2022-12-25T08:29:29.550Z,15.60
2022-12-25T08:31:57.490Z,18.80
2022-12-25T08:34:26.509Z,20.30
2022-12-25T08:36:54.666Z,27.40
2022-12-25T08:39:22.791Z,19.30
2022-12-25T08:41:50.767Z,21.50
2022-12-25T08:44:19.404Z,27.70
2022-12-25T08:46:47.618Z,24.60
2022-12-25T08:49:16.551Z,23.00
2022-12-25T08:51:45.709Z,23.70
2022-12-25T08:54:13.921Z,23.30
2022-12-25T08:56:41.936Z,24.00
2022-12-25T08:59:09.901Z,23.90
2022-12-25T09:01:38.230Z,21.70
2022-12-25T09:04:06.266Z,23.90
2022-12-25T09:06:34.291Z,29.60
2022-12-25T09:09:02.418Z,19.00
2022-12-25T09:11:30.488Z,17.80
2022-12-25T09:13:58.589Z,20.40
2022-12-25T09:16:26.811Z,19.30
2022-12-25T09:18:56.995Z,21.10
2022-12-25T09:21:25.033Z,21.90
2022-12-25T09:23:52.937Z,21.20
2022-12-25T09:26:20.932Z,15.10
2022-12-25T09:28:52.294Z,23.00
2022-12-25T09:31:22.348Z,14.70
2022-12-25T09:33:51.503Z,12.20
2022-12-25T09:36:23.247Z,11.00
2022-12-25T09:38:52.206Z,14.60
2022-12-25T09:41:31.824Z,12.80
2022-12-25T09:44:15.134Z,14.10
2022-12-25T09:47:14.514Z,10.10
2022-12-25T09:49:57.220Z,11.00
2022-12-25T09:52:42.736Z,12.20
2022-12-25T09:55:21.241Z,12.10
2022-12-25T09:57:56.696Z,9.40
2022-12-25T10:00:35.175Z,13.90
2022-12-25T10:03:13.474Z,13.10
2022-12-25T10:06:08.171Z,10.00
2022-12-25T10:08:57.944Z,10.40
2022-12-25T10:11:44.275Z,9.90
2022-12-25T10:14:26.811Z,7.30
2022-12-25T10:17:26.423Z,10.50
2022-12-25T10:20:37.544Z,14.90
2022-12-25T10:23:14.913Z,12.50
2022-12-25T10:25:44.425Z,15.10
2022-12-25T10:28:16.896Z,13.80
2022-12-25T10:30:45.466Z,15.80
2022-12-25T10:33:17.054Z,13.10
2022-12-25T10:35:46.236Z,13.10
2022-12-25T10:38:20.108Z,12.00
2022-12-25T10:40:57.293Z,15.00
2022-12-25T10:43:32.708Z,11.10
2022-12-25T10:46:00.948Z,16.00
2022-12-25T10:48:30.684Z,13.90
2022-12-25T10:50:59.313Z,15.40
2022-12-25T10:53:29.293Z,12.60
2022-12-25T10:56:03.670Z,11.40
2022-12-25T10:58:33.273Z,15.80
2022-12-25T11:01:05.072Z,13.00
2022-12-25T11:03:38.173Z,8.70
2022-12-25T11:06:20.529Z,13.60
2022-12-25T11:08:54.207Z,10.30
2022-12-25T11:11:22.732Z,6.90
2022-12-25T11:13:57.022Z,12.10
2022-12-25T11:16:30.473Z,9.80
2022-12-25T11:19:00.150Z,14.70
2022-12-25T11:21:35.081Z,11.00
2022-12-25T11:24:17.694Z,13.30
2022-12-25T11:26:52.286Z,11.20
2022-12-25T11:29:50.691Z,9.10
2022-12-25T11:32:31.672Z,11.70
2022-12-25T11:37:46.260Z,12.70
2022-12-25T11:40:20.588Z,11.30
2022-12-25T11:43:21.951Z,13.90
2022-12-25T11:46:07.422Z,8.00
2022-12-25T11:48:44.780Z,9.00
2022-12-25T11:51:15.043Z,10.90
2022-12-25T11:53:46.433Z,14.50
2022-12-25T11:56:26.285Z,9.60
2022-12-25T11:59:00.515Z,9.70
2022-12-25T12:01:37.692Z,9.80
2022-12-25T12:04:27.455Z,13.50
2022-12-25T12:07:00.748Z,15.10
2022-12-25T12:10:01.018Z,13.50
2022-12-25T12:12:48.260Z,11.70
2022-12-25T12:15:27.524Z,9.80
2022-12-25T12:17:56.394Z,12.20
2022-12-25T12:20:29.625Z,15.60
2022-12-25T12:23:00.142Z,13.70
2022-12-25T12:25:29.748Z,13.20
2022-12-25T12:28:05.203Z,8.80
2022-12-25T12:30:35.881Z,16.50
2022-12-25T12:33:07.145Z,12.80
2022-12-25T12:35:38.844Z,10.80
2022-12-25T12:38:14.784Z,12.20
2022-12-25T12:40:52.564Z,14.00
2022-12-25T12:43:32.533Z,15.50
2022-12-25T12:46:16.751Z,10.80
2022-12-25T12:48:49.084Z,9.40
2022-12-25T12:51:29.291Z,9.60
2022-12-25T12:54:22.561Z,10.60
2022-12-25T12:57:06.618Z,11.10
2022-12-25T12:59:43.688Z,10.00
2022-12-25T13:02:54.285Z,11.90
2022-12-25T13:08:30.922Z,14.10
2022-12-25T13:11:17.786Z,12.50
2022-12-25T13:13:48.678Z,12.70
2022-12-25T13:16:23.397Z,15.20
2022-12-25T13:18:53.641Z,16.50
2022-12-25T13:21:27.462Z,14.00
2022-12-25T13:24:07.489Z,10.80
2022-12-25T13:26:35.575Z,14.20
2022-12-25T13:29:09.478Z,12.20
2022-12-25T13:31:40.730Z,10.80
2022-12-25T13:34:32.095Z,10.70
2022-12-25T13:37:08.380Z,14.00
2022-12-25T13:39:39.475Z,10.80
2022-12-25T13:42:10.079Z,8.90
2022-12-25T13:44:42.858Z,12.30
2022-12-25T13:47:33.955Z,11.90
2022-12-25T13:50:21.024Z,10.20
2022-12-25T13:52:50.598Z,12.20
2022-12-25T13:55:26.780Z,9.40
2022-12-25T13:57:56.062Z,9.30
2022-12-25T14:00:32.334Z,10.10
2022-12-25T14:03:00.798Z,9.50
2022-12-25T14:05:42.755Z,14.10
2022-12-25T14:08:16.129Z,20.00
2022-12-25T14:10:49.709Z,12.30
2022-12-25T14:13:21.207Z,13.40
2022-12-25T14:18:19.889Z,13.60
2022-12-25T14:21:01.760Z,18.40
2022-12-25T14:23:39.495Z,13.00
2022-12-25T14:26:07.905Z,11.00
2022-12-25T14:28:38.046Z,15.40
2022-12-25T14:31:06.273Z,16.30
2022-12-25T14:33:39.228Z,24.30
2022-12-25T14:36:07.926Z,15.40
2022-12-25T14:38:36.232Z,13.80
2022-12-25T14:41:33.683Z,12.00
2022-12-25T14:44:04.189Z,22.70
2022-12-25T14:46:34.137Z,13.30
2022-12-25T14:49:05.466Z,14.60
2022-12-25T14:51:38.927Z,11.30
2022-12-25T14:54:19.003Z,14.30
2022-12-25T14:56:48.957Z,16.30
2022-12-25T14:59:20.744Z,14.70
2022-12-25T15:02:03.418Z,14.00
2022-12-25T15:04:32.043Z,10.60
2022-12-25T15:07:07.306Z,10.60
2022-12-25T15:09:36.241Z,12.30
2022-12-25T15:12:04.792Z,9.60
2022-12-25T15:14:36.391Z,13.20
2022-12-25T15:17:04.575Z,12.50
2022-12-25T15:19:38.651Z,12.90
2022-12-25T15:22:07.315Z,15.00
2022-12-25T15:24:35.421Z,18.90
2022-12-25T15:27:05.630Z,15.30
2022-12-25T15:32:24.349Z,18.80
2022-12-25T15:34:54.142Z,17.90
2022-12-25T15:37:22.104Z,20.90
2022-12-25T15:39:50.692Z,19.20
2022-12-25T15:42:22.994Z,26.60
2022-12-25T15:44:52.047Z,19.90
2022-12-25T15:47:20.606Z,34.40
2022-12-25T15:49:49.351Z,28.70
2022-12-25T15:52:17.838Z,26.90
2022-12-25T15:54:46.273Z,29.50
2022-12-25T15:57:18.524Z,31.40
2022-12-25T15:59:47.028Z,29.50
2022-12-25T16:02:18.835Z,31.50
2022-12-25T16:04:47.481Z,32.60
2022-12-25T16:07:18.292Z,30.30
2022-12-25T16:12:14.648Z,28.70
2022-12-25T16:14:42.823Z,33.70
2022-12-25T16:17:14.300Z,29.10
2022-12-25T16:19:45.065Z,30.20
2022-12-25T16:22:28.780Z,32.40
2022-12-25T16:24:56.728Z,33.50
2022-12-25T16:27:25.370Z,34.80
2022-12-25T16:29:53.587Z,35.90
2022-12-25T16:32:21.814Z,32.90
2022-12-25T16:34:49.932Z,31.60
2022-12-25T16:37:18.382Z,32.90
2022-12-25T16:39:46.579Z,34.90
2022-12-25T16:42:14.468Z,34.20
2022-12-25T16:44:42.469Z,34.60
2022-12-25T16:47:10.650Z,36.60
2022-12-25T16:49:38.940Z,37.40
2022-12-25T16:52:07.300Z,41.50
2022-12-25T16:54:35.366Z,33.20
2022-12-25T16:57:03.408Z,46.50
2022-12-25T16:59:31.751Z,44.90
2022-12-25T17:01:59.816Z,43.30
2022-12-25T17:04:28.310Z,43.60
2022-12-25T17:06:56.607Z,50.60
2022-12-25T17:09:25.443Z,46.10
2022-12-25T17:11:53.455Z,49.90
2022-12-25T17:14:21.610Z,49.50
2022-12-25T17:16:49.717Z,47.90
2022-12-25T17:19:19.785Z,57.80
2022-12-25T17:21:48.002Z,50.90
2022-12-25T17:24:16.251Z,56.50
2022-12-25T17:26:45.370Z,61.30
2022-12-25T17:29:18.698Z,65.60
2022-12-25T17:31:49.666Z,53.40
2022-12-25T17:34:17.591Z,54.70
2022-12-25T17:36:45.461Z,65.10
2022-12-25T17:39:13.597Z,75.40
2022-12-25T17:41:41.621Z,82.40
2022-12-25T17:44:10.254Z,78.40
2022-12-25T17:46:38.808Z,76.50
2022-12-25T17:49:07.003Z,74.10
2022-12-25T17:51:35.373Z,79.20
2022-12-25T17:54:03.449Z,89.20
2022-12-25T17:56:32.459Z,78.80
2022-12-25T17:59:06.836Z,81.90
2022-12-25T18:01:38.608Z,78.40
2022-12-25T18:04:07.361Z,80.90
2022-12-25T18:06:36.723Z,80.90
2022-12-25T18:09:06.640Z,79.40
2022-12-25T18:11:39.619Z,83.70
2022-12-25T18:14:10.245Z,75.40
2022-12-25T18:16:40.303Z,84.30
2022-12-25T18:19:09.480Z,88.10
2022-12-25T18:21:37.678Z,81.00
2022-12-25T18:24:07.157Z,85.50
2022-12-25T18:26:35.811Z,80.10
2022-12-25T18:29:04.307Z,74.70
2022-12-25T18:31:32.494Z,69.60
2022-12-25T18:34:00.699Z,72.10
2022-12-25T18:36:29.988Z,68.60
2022-12-25T18:38:58.858Z,66.50
2022-12-25T18:41:29.065Z,63.40
2022-12-25T18:44:00.177Z,73.20
2022-12-25T18:46:28.807Z,73.00
2022-12-25T18:48:57.475Z,69.70
2022-12-25T18:51:29.969Z,71.20
2022-12-25T18:54:03.234Z,72.30
2022-12-25T18:56:31.437Z,71.80
2022-12-25T18:59:00.710Z,63.50
2022-12-25T19:01:29.140Z,71.10
2022-12-25T19:04:04.603Z,65.90
2022-12-25T19:06:34.011Z,74.00
2022-12-25T19:09:09.431Z,79.70
2022-12-25T19:11:46.176Z,78.00
2022-12-25T19:14:15.233Z,80.50
2022-12-25T19:16:43.692Z,72.20
2022-12-25T19:19:12.144Z,65.30
2022-12-25T19:21:40.559Z,60.80
2022-12-25T19:24:08.535Z,61.00
2022-12-25T19:26:37.710Z,60.70
2022-12-25T19:29:05.983Z,59.70
2022-12-25T19:31:34.030Z,64.60
2022-12-25T19:34:02.241Z,56.90
2022-12-25T19:36:31.387Z,51.30
2022-12-25T19:38:59.563Z,51.40
2022-12-25T19:41:27.574Z,58.80
2022-12-25T19:43:55.693Z,52.70
2022-12-25T19:46:27.166Z,63.10
2022-12-25T19:48:56.379Z,70.50
2022-12-25T19:51:27.347Z,60.70
2022-12-25T19:53:56.356Z,61.30
2022-12-25T19:56:26.163Z,58.00
2022-12-25T19:58:54.926Z,53.50
2022-12-25T20:01:25.721Z,55.50
2022-12-25T20:03:54.445Z,68.20
2022-12-25T20:06:27.171Z,79.70
2022-12-25T20:08:58.144Z,98.30
2022-12-25T20:11:27.916Z,96.90
2022-12-25T20:13:56.532Z,78.50
2022-12-25T20:16:26.104Z,79.80
2022-12-25T20:18:54.236Z,79.90
2022-12-25T20:21:23.138Z,69.60
2022-12-25T20:23:52.719Z,67.30
2022-12-25T20:26:23.819Z,70.30
2022-12-25T20:28:52.872Z,77.50
2022-12-25T20:31:27.849Z,60.20
2022-12-25T20:34:06.490Z,71.30
2022-12-25T20:36:37.547Z,61.70
2022-12-25T20:39:09.435Z,57.30
2022-12-25T20:41:40.734Z,55.40
2022-12-25T20:44:10.320Z,49.40
2022-12-25T20:46:39.058Z,50.50
2022-12-25T20:49:07.282Z,42.50
2022-12-25T20:51:35.471Z,39.50
2022-12-25T20:54:07.714Z,41.00
2022-12-25T20:56:36.661Z,34.00
2022-12-25T20:59:04.687Z,37.10
2022-12-25T21:01:33.075Z,36.70
2022-12-25T21:04:01.262Z,38.20
2022-12-25T21:06:29.308Z,43.20
2022-12-25T21:08:57.839Z,43.40
2022-12-25T21:11:26.640Z,47.80
2022-12-25T21:13:54.850Z,48.40
2022-12-25T21:16:24.077Z,51.00
2022-12-25T21:18:53.923Z,54.00
2022-12-25T21:21:22.327Z,47.70
2022-12-25T21:23:50.981Z,42.70
2022-12-25T21:26:25.189Z,37.80
2022-12-25T21:28:56.362Z,40.70
2022-12-25T21:31:24.971Z,36.20
2022-12-25T21:33:55.111Z,33.50
2022-12-25T21:36:33.813Z,37.00
2022-12-25T21:39:04.859Z,31.40
2022-12-25T21:41:35.852Z,36.30
2022-12-25T21:44:05.064Z,32.40
2022-12-25T21:46:34.399Z,38.50
2022-12-25T21:49:02.806Z,33.40
2022-12-25T21:51:51.387Z,37.10
2022-12-25T21:54:21.716Z,34.80
2022-12-25T21:56:50.384Z,37.60
2022-12-25T21:59:21.328Z,36.20
2022-12-25T22:01:51.882Z,38.60
2022-12-25T22:04:21.704Z,39.80
2022-12-25T22:07:08.799Z,35.70
2022-12-25T22:09:37.588Z,39.60
2022-12-25T22:12:28.531Z,42.10
2022-12-25T22:15:05.570Z,38.40
2022-12-25T22:18:01.189Z,36.60
2022-12-25T22:20:37.231Z,34.00
2022-12-25T22:23:05.511Z,34.40
2022-12-25T22:25:33.448Z,39.50
2022-12-25T22:28:01.806Z,33.10
2022-12-25T22:30:30.479Z,33.70
2022-12-25T22:32:58.490Z,35.00
2022-12-25T22:35:26.738Z,31.90
2022-12-25T22:37:54.868Z,37.00
2022-12-25T22:40:22.982Z,30.10
2022-12-25T22:42:54.817Z,43.30
2022-12-25T22:45:24.081Z,37.30
2022-12-25T22:47:52.395Z,39.00
2022-12-25T22:50:20.360Z,33.20
2022-12-25T22:52:48.351Z,35.30
2022-12-25T22:55:18.406Z,34.80
2022-12-25T22:57:46.431Z,40.00
2022-12-25T23:00:14.494Z,36.40
2022-12-25T23:02:42.924Z,29.20
2022-12-25T23:05:11.331Z,31.90
2022-12-25T23:07:39.575Z,30.00
2022-12-25T23:10:09.016Z,30.40
2022-12-25T23:12:55.642Z,30.80
2022-12-25T23:15:24.154Z,25.70
2022-12-25T23:18:10.658Z,36.00
2022-12-25T23:20:57.785Z,25.60
2022-12-25T23:23:44.140Z,22.20
2022-12-25T23:26:13.799Z,28.60
2022-12-25T23:29:01.873Z,23.20
2022-12-25T23:31:33.736Z,27.50
2022-12-25T23:34:02.633Z,25.40
2022-12-25T23:36:31.629Z,30.60
2022-12-25T23:39:06.860Z,31.00
2022-12-25T23:41:42.204Z,26.70
2022-12-25T23:44:11.774Z,26.50
2022-12-25T23:46:40.901Z,25.40
2022-12-25T23:49:10.213Z,22.70
2022-12-25T23:51:44.640Z,25.60
2022-12-25T23:54:16.046Z,28.40
2022-12-25T23:56:44.633Z,25.80
2022-12-25T23:59:13.570Z,23.00
